aviador You're here:

YBRK Decoded Metar

ROCKHAMPTON in AUSTRALIA
Report Time2017-08-18 16:00:00
UTC Time2017-08-18 16:25:43
Flight Rules vfr VFR
Wind190° at 04 kt
W.Decomp.*RWY 15: 3.4 kt HW 2.1 kt RCW
RWY 22: 3.1 kt HW 2.5 kt LCW
W.Rank190° ranks 17
Current wind is below 190° avg. (4.4)
Visibility9999 m
Phenomena:N/A
Clouds:N/A
Expected CloudBase > 3,200 ft AGL from Temp-Dew spread
CeilingNone
Temp15°C (ISA 0)
Dew Point07°C (59% RH)
AAT12.9°C
QNH1017 hPa
Density Alt59 ft
Elevation46 ft
Report Wrong Elevation
Raw Report
YBRK 181600Z AUTO 19004KT 9999 // NCD 15/07 Q1017=

Extra information for YBRK:More info

Metar Taf Metar & Taf Last 4 Metars F.Rules Stats Wind Profile Meteogram Temp Stats Airport Information Weather charts Add Link Nearby VenuesMetar ALERT Operation Metar Decoded Social comments